Aérodrome :
LOGIN :

S'inscrire | Disclaimer

   EN    FR    IT 

 










Légende :    VFR   VFR Marginal   IFR   IFR Intensif   IFR Très Intensif
Visi : 
Plafond : 
>= 8 km
>= 3000ft
5 à 8 km
1000 à 3000 ft
1500m à 5 km
500 à 1000 ft
800 à 1500m
200 à 500 ft
< 800m
< 200 ft
Symboles :   Orages  Brouillard  Fortes neiges  Fortes précipitations  Vent > 20 kt
SIGMETs :   Divers  Orages  Givrage  Turbulence  Onde Orograph.  Cendres Volcan.







- Altitude de l'aérodrome : 72 ft
- Code IATA : UDE


EHVK - Volkel Airbase

DERNIER METAR :
  • 231555Z AUTO 06004KT 030V090 9999 NCD 17/10 Q1022 BLU

METARs EXPIRÉS :
  • 231525Z AUTO 06005KT 020V090 9999 NCD 17/09 Q1022 BLU
  • 231455Z AUTO VRB02KT 9999 NCD 17/10 Q1023 BLU
  • 231425Z AUTO 07005KT 030V110 9999 NCD 17/11 Q1023 BLU
  • 231355Z AUTO 03003KT 310V080 9999 SCT350 18/10 Q1023 BLU
  • 231325Z AUTO VRB02KT 9999 NCD 18/10 Q1024 BLU

TAF TAF EHVK
Valide du 23 à 13h jusqu'au 24 à 01h UTC


231216Z 2313/2401 VRB03KT 9999 SCT025
BECMG 2319/2321 05004KT
BECMG 2323/2401 3000 BR MIFG
Pas de NOTAMs connus pour ce terrain.



MET'MAP, la Météo Aéronautique d'un coup d'oeil ! - Copyright ORBIFLY Décembre 2007 - Disclaimer

ORBIFLY MET'MAP TEAM :

Programmation & Développement : Alexandra Zaïnal
Conception & Développement : Baudouin d'Aumeries
Co-Programmation & Développement : Marc-Olivier Méhu
Soutien technique & logistique : Manuel Goepfert

Contact : metmap@orbifly.com




SOURCES & CREDITS :

   NOAA